createdAt,value
2019-04-27T00:00:34.640Z,9.60
2019-04-27T00:03:09.894Z,9.50
2019-04-27T00:05:58.008Z,9.40
2019-04-27T00:08:38.795Z,9.40
2019-04-27T00:11:30.953Z,9.30
2019-04-27T00:14:03.809Z,9.30
2019-04-27T00:16:51.182Z,9.30
2019-04-27T00:19:38.411Z,9.20
2019-04-27T00:22:12.957Z,9.20
2019-04-27T00:24:44.191Z,9.00
2019-04-27T00:27:16.412Z,8.90
2019-04-27T00:29:45.580Z,8.80
2019-04-27T00:32:14.828Z,8.60
2019-04-27T00:34:45.525Z,8.60
2019-04-27T00:37:34.023Z,8.60
2019-04-27T00:40:14.790Z,8.50
2019-04-27T00:42:45.657Z,8.40
2019-04-27T00:45:15.396Z,8.40
2019-04-27T00:47:56.825Z,8.40
2019-04-27T00:50:15.566Z,8.30
2019-04-27T00:52:46.135Z,8.20
2019-04-27T00:55:16.834Z,8.10
2019-04-27T00:57:59.008Z,8.10
2019-04-27T01:00:49.648Z,8.10
2019-04-27T01:03:33.300Z,8.10
2019-04-27T01:06:03.257Z,8.10
2019-04-27T01:08:35.584Z,8.00
2019-04-27T01:11:04.916Z,8.00
2019-04-27T01:13:35.002Z,7.90
2019-04-27T01:16:04.742Z,7.90
2019-04-27T01:18:33.942Z,7.90
2019-04-27T01:21:03.820Z,7.80
2019-04-27T01:23:38.578Z,7.80
2019-04-27T01:26:40.024Z,7.80
2019-04-27T01:29:12.920Z,7.70
2019-04-27T01:31:42.133Z,7.70
2019-04-27T01:34:11.919Z,7.60
2019-04-27T01:36:41.165Z,7.60
2019-04-27T01:39:14.208Z,7.60
2019-04-27T01:41:44.766Z,7.50
2019-04-27T01:44:16.639Z,7.50
2019-04-27T01:46:45.958Z,7.60
2019-04-27T01:49:15.134Z,7.50
2019-04-27T01:51:44.325Z,7.50
2019-04-27T01:54:15.904Z,7.50
2019-04-27T01:56:46.336Z,7.50
2019-04-27T01:59:15.523Z,7.40
2019-04-27T02:02:06.883Z,7.40
2019-04-27T02:04:55.060Z,7.40
2019-04-27T02:07:25.944Z,7.40
2019-04-27T02:09:55.041Z,7.30
2019-04-27T02:12:24.132Z,7.20
2019-04-27T02:14:55.052Z,7.20
2019-04-27T02:17:24.326Z,7.20
2019-04-27T02:19:57.001Z,7.20
2019-04-27T02:22:26.194Z,7.10
2019-04-27T02:24:55.746Z,7.20
2019-04-27T02:27:26.530Z,7.10
2019-04-27T02:30:20.480Z,7.10
2019-04-27T02:33:20.223Z,7.00
2019-04-27T02:35:50.414Z,7.00
2019-04-27T02:38:41.105Z,7.10
2019-04-27T02:41:10.347Z,7.00
2019-04-27T02:43:49.595Z,7.00
2019-04-27T02:46:20.057Z,7.10
2019-04-27T02:48:56.626Z,7.10
2019-04-27T02:51:29.969Z,7.00
2019-04-27T02:54:00.447Z,7.10
2019-04-27T02:56:30.555Z,7.00
2019-04-27T02:58:59.823Z,7.00
2019-04-27T03:01:35.455Z,7.00
2019-04-27T03:04:04.299Z,6.90
2019-04-27T03:06:33.055Z,6.90
2019-04-27T03:09:05.139Z,6.90
2019-04-27T03:11:33.985Z,6.90
2019-04-27T03:14:36.472Z,7.00
2019-04-27T03:17:19.916Z,6.90
2019-04-27T03:20:11.218Z,6.90
2019-04-27T03:22:52.575Z,6.90
2019-04-27T03:25:41.096Z,6.90
2019-04-27T03:28:12.076Z,6.90
2019-04-27T03:30:42.852Z,6.90
2019-04-27T03:33:12.659Z,6.80
2019-04-27T03:35:44.265Z,6.80
2019-04-27T03:38:12.709Z,6.80
2019-04-27T03:40:41.548Z,6.70
2019-04-27T03:43:19.980Z,6.70
2019-04-27T03:45:51.849Z,6.70
2019-04-27T03:48:20.400Z,6.60
2019-04-27T03:51:09.926Z,6.60
2019-04-27T03:53:44.103Z,6.50
2019-04-27T03:56:22.922Z,6.50
2019-04-27T03:58:54.984Z,6.50
2019-04-27T04:01:23.828Z,6.40
2019-04-27T04:03:52.708Z,6.40
2019-04-27T04:06:23.761Z,6.40
2019-04-27T04:08:55.058Z,6.30
2019-04-27T04:11:30.396Z,6.40
2019-04-27T04:14:04.114Z,6.40
2019-04-27T04:16:58.974Z,6.30
2019-04-27T04:19:25.283Z,6.30
2019-04-27T04:21:54.036Z,6.30
2019-04-27T04:24:28.153Z,6.30
2019-04-27T04:26:54.835Z,6.30
2019-04-27T04:29:23.592Z,6.30
2019-04-27T04:31:54.832Z,6.30
2019-04-27T04:34:24.796Z,6.30
2019-04-27T04:36:53.528Z,6.50
2019-04-27T04:39:23.844Z,6.80
2019-04-27T04:42:19.693Z,6.90
2019-04-27T04:45:23.054Z,6.80
2019-04-27T04:48:04.717Z,6.90
2019-04-27T04:50:33.491Z,7.10
2019-04-27T04:53:02.265Z,7.20
2019-04-27T04:55:31.042Z,7.50
2019-04-27T04:57:59.766Z,7.60
2019-04-27T05:00:29.979Z,7.80
2019-04-27T05:02:59.574Z,7.90
2019-04-27T05:05:29.341Z,8.20
2019-04-27T05:08:00.525Z,8.50
2019-04-27T05:10:31.161Z,8.60
2019-04-27T05:12:59.541Z,8.60
2019-04-27T05:15:29.339Z,8.90
2019-04-27T05:17:59.873Z,9.10
2019-04-27T05:20:34.482Z,9.40
2019-04-27T05:23:03.237Z,9.60
2019-04-27T05:25:33.121Z,10.30
2019-04-27T05:28:01.861Z,11.90
2019-04-27T05:30:31.775Z,14.30
2019-04-27T05:33:00.550Z,14.60
2019-04-27T05:35:30.516Z,14.90
2019-04-27T05:38:06.142Z,14.30
2019-04-27T05:40:31.154Z,13.10
2019-04-27T05:43:00.011Z,12.30
2019-04-27T05:45:57.725Z,11.80
2019-04-27T05:48:30.316Z,12.30
2019-04-27T05:51:01.650Z,11.70
2019-04-27T05:53:30.076Z,11.80
2019-04-27T05:55:59.437Z,11.80
2019-04-27T05:58:28.928Z,11.20
2019-04-27T06:00:59.505Z,11.10
2019-04-27T06:03:30.834Z,10.90
2019-04-27T06:06:01.730Z,10.90
2019-04-27T06:08:30.100Z,10.70
2019-04-27T06:10:59.364Z,10.60
2019-04-27T06:13:30.700Z,10.50
2019-04-27T06:15:59.323Z,10.30
2019-04-27T06:18:29.447Z,10.40
2019-04-27T06:20:59.863Z,10.40
2019-04-27T06:23:30.103Z,10.30
2019-04-27T06:26:01.752Z,10.30
2019-04-27T06:28:31.515Z,10.40
2019-04-27T06:31:00.527Z,10.40
2019-04-27T06:33:34.095Z,10.20
2019-04-27T06:36:02.487Z,10.20
2019-04-27T06:38:36.245Z,10.10
2019-04-27T06:41:05.217Z,10.30
2019-04-27T06:43:34.014Z,10.40
2019-04-27T06:46:02.790Z,10.60
2019-04-27T06:48:31.547Z,10.60
2019-04-27T06:51:03.552Z,10.50
2019-04-27T06:53:30.951Z,10.50
2019-04-27T06:55:59.755Z,10.50
2019-04-27T06:58:29.235Z,10.50
2019-04-27T07:01:00.512Z,10.40
2019-04-27T07:03:29.285Z,10.40
2019-04-27T07:05:58.894Z,10.50
2019-04-27T07:08:28.661Z,10.60
2019-04-27T07:10:58.798Z,10.70
2019-04-27T07:13:30.123Z,10.70
2019-04-27T07:15:59.689Z,10.80
2019-04-27T07:18:28.746Z,10.80
2019-04-27T07:20:58.662Z,10.90
2019-04-27T07:23:29.282Z,11.00
2019-04-27T07:25:59.850Z,11.00
2019-04-27T07:28:28.863Z,11.10
2019-04-27T07:30:58.634Z,11.10
2019-04-27T07:33:29.520Z,11.00
2019-04-27T07:35:59.076Z,11.20
2019-04-27T07:38:31.146Z,11.20
2019-04-27T07:40:59.892Z,11.10
2019-04-27T07:43:39.668Z,11.20
2019-04-27T07:46:08.947Z,11.30
2019-04-27T07:48:39.474Z,11.50
2019-04-27T07:51:09.028Z,11.50
2019-04-27T07:53:42.647Z,11.70
2019-04-27T07:56:11.545Z,11.50
2019-04-27T07:58:40.817Z,11.40
2019-04-27T08:01:13.746Z,11.30
2019-04-27T08:03:44.333Z,11.40
2019-04-27T08:06:15.307Z,11.70
2019-04-27T08:08:43.882Z,11.50
2019-04-27T08:11:12.727Z,11.40
2019-04-27T08:13:41.473Z,11.10
2019-04-27T08:16:10.839Z,11.10
2019-04-27T08:18:39.720Z,11.10
2019-04-27T08:21:10.257Z,11.00
2019-04-27T08:23:39.495Z,11.00
2019-04-27T08:26:14.403Z,11.00
2019-04-27T08:29:01.835Z,11.10
2019-04-27T08:31:38.575Z,11.10
2019-04-27T08:34:26.677Z,11.10
2019-04-27T08:36:55.461Z,11.30
2019-04-27T08:39:24.238Z,11.30
2019-04-27T08:41:54.788Z,11.50
2019-04-27T08:44:23.557Z,11.70
2019-04-27T08:46:52.345Z,11.70
2019-04-27T08:49:21.315Z,11.60
2019-04-27T08:51:59.248Z,11.80
2019-04-27T08:54:23.470Z,11.90
2019-04-27T08:56:52.403Z,11.90
2019-04-27T08:59:21.343Z,12.10
2019-04-27T09:01:50.546Z,12.30
2019-04-27T09:04:20.102Z,12.00
2019-04-27T09:06:52.125Z,12.10
2019-04-27T09:09:39.668Z,12.50
2019-04-27T09:12:36.646Z,12.90
2019-04-27T09:15:13.089Z,13.00
2019-04-27T09:17:48.677Z,13.10
2019-04-27T09:20:26.544Z,13.00
2019-04-27T09:23:00.004Z,13.10
2019-04-27T09:25:29.615Z,13.00
2019-04-27T09:27:59.717Z,12.80
2019-04-27T09:30:30.418Z,12.90
2019-04-27T09:32:59.264Z,12.80
2019-04-27T09:35:28.387Z,12.60
2019-04-27T09:37:57.162Z,12.50
2019-04-27T09:40:26.792Z,12.50
2019-04-27T09:42:57.392Z,12.60
2019-04-27T09:45:29.728Z,12.80
2019-04-27T09:47:59.685Z,13.10
2019-04-27T09:50:28.897Z,13.20
2019-04-27T09:52:58.558Z,13.00
2019-04-27T09:55:27.942Z,12.90
2019-04-27T09:57:58.815Z,13.00
2019-04-27T10:00:29.459Z,12.80
2019-04-27T10:02:58.286Z,12.70
2019-04-27T10:05:27.114Z,12.80
2019-04-27T10:07:56.976Z,12.80
2019-04-27T10:10:27.409Z,12.80
2019-04-27T10:13:06.830Z,12.60
2019-04-27T10:15:29.254Z,12.60
2019-04-27T10:17:57.823Z,12.70
2019-04-27T10:20:26.824Z,12.80
2019-04-27T10:22:56.442Z,12.80
2019-04-27T10:25:27.073Z,12.90
2019-04-27T10:27:58.951Z,12.70
2019-04-27T10:30:28.867Z,12.40
2019-04-27T10:32:57.715Z,12.30
2019-04-27T10:35:26.539Z,12.30
2019-04-27T10:37:57.459Z,12.50
2019-04-27T10:40:27.387Z,12.40
2019-04-27T10:43:00.712Z,12.40
2019-04-27T10:45:29.676Z,12.50
2019-04-27T10:47:58.697Z,12.60
2019-04-27T10:50:27.546Z,12.60
2019-04-27T10:52:59.101Z,12.60
2019-04-27T10:55:27.426Z,12.30
2019-04-27T10:57:57.292Z,12.00
2019-04-27T11:00:33.042Z,11.80
2019-04-27T11:03:01.902Z,11.80
2019-04-27T11:05:42.884Z,11.70
2019-04-27T11:08:13.019Z,11.80
2019-04-27T11:10:42.004Z,11.80
2019-04-27T11:13:11.248Z,11.90
2019-04-27T11:15:40.443Z,12.10
2019-04-27T11:18:10.754Z,12.30
2019-04-27T11:20:40.851Z,12.50
2019-04-27T11:23:12.350Z,12.50
2019-04-27T11:25:40.187Z,12.50
2019-04-27T11:28:11.126Z,12.30
2019-04-27T11:30:39.890Z,12.20
2019-04-27T11:33:12.708Z,12.20
2019-04-27T11:35:51.380Z,12.50
2019-04-27T11:38:20.222Z,12.90
2019-04-27T11:40:49.055Z,13.30
2019-04-27T11:43:17.899Z,13.20
2019-04-27T11:45:49.452Z,12.80
2019-04-27T11:48:18.227Z,12.80
2019-04-27T11:50:47.026Z,12.90
2019-04-27T11:53:22.784Z,12.90
2019-04-27T11:55:47.054Z,13.10
2019-04-27T11:58:17.355Z,13.00
2019-04-27T12:00:48.910Z,13.00
2019-04-27T12:03:17.668Z,13.20
2019-04-27T12:05:46.580Z,13.50
2019-04-27T12:08:18.262Z,14.50
2019-04-27T12:10:48.359Z,14.70
2019-04-27T12:13:18.817Z,14.70
2019-04-27T12:15:47.629Z,14.40
2019-04-27T12:18:16.758Z,14.10
2019-04-27T12:20:45.957Z,13.90
2019-04-27T12:23:16.533Z,13.60
2019-04-27T12:25:48.370Z,13.10
2019-04-27T12:28:35.554Z,12.90
2019-04-27T12:31:16.901Z,12.80
2019-04-27T12:33:47.744Z,12.50
2019-04-27T12:36:16.307Z,12.20
2019-04-27T12:38:46.721Z,11.70
2019-04-27T12:41:15.717Z,11.60
2019-04-27T12:43:46.066Z,11.70
2019-04-27T12:46:16.069Z,11.60
2019-04-27T12:48:46.490Z,11.40
2019-04-27T12:51:15.862Z,11.30
2019-04-27T12:54:11.918Z,11.30
2019-04-27T19:20:10.467Z,9.30
2019-04-27T19:22:39.570Z,9.20
2019-04-27T19:25:10.587Z,9.30
2019-04-27T19:28:02.382Z,9.30
2019-04-27T19:30:37.632Z,9.30
2019-04-27T19:33:08.883Z,9.30
2019-04-27T19:35:39.473Z,9.30
2019-04-27T19:38:10.490Z,9.40
2019-04-27T19:40:39.238Z,9.30
2019-04-27T19:43:10.305Z,9.30
2019-04-27T19:45:44.413Z,9.30
2019-04-27T19:48:13.225Z,9.30
2019-04-27T19:50:42.315Z,9.30
2019-04-27T19:53:11.054Z,9.20
2019-04-27T19:55:40.609Z,9.30
2019-04-27T19:58:09.559Z,9.30
2019-04-27T20:48:31.281Z,9.10
2019-04-27T20:51:01.905Z,9.00
2019-04-27T20:53:58.293Z,9.00
2019-04-27T20:56:27.170Z,9.00
2019-04-27T20:58:57.450Z,8.90
2019-04-27T21:01:26.307Z,8.90
2019-04-27T21:03:57.517Z,8.80
2019-04-27T21:06:44.250Z,8.80
2019-04-27T21:09:21.325Z,8.80
2019-04-27T21:11:50.210Z,8.70
2019-04-27T21:14:19.096Z,8.70
2019-04-27T21:16:51.503Z,8.80
2019-04-27T21:19:21.027Z,8.70
2019-04-27T21:21:51.060Z,8.70
2019-04-27T21:24:20.734Z,8.80
2019-04-27T21:26:51.245Z,8.70
2019-04-27T21:29:22.245Z,8.70
2019-04-27T21:31:51.987Z,8.70
2019-04-27T21:34:22.129Z,8.70
2019-04-27T21:37:02.995Z,8.70
2019-04-27T21:39:32.524Z,8.70
2019-04-27T21:42:01.404Z,8.60
2019-04-27T21:44:32.024Z,8.60
2019-04-27T21:47:03.579Z,8.50
2019-04-27T21:49:32.495Z,8.50
2019-04-27T21:52:07.055Z,8.60
2019-04-27T21:54:36.674Z,8.50
2019-04-27T21:57:05.758Z,8.50
2019-04-27T21:59:34.684Z,8.50
2019-04-27T22:04:33.017Z,8.50
2019-04-27T22:07:04.518Z,8.50
2019-04-27T22:09:33.306Z,8.50
2019-04-27T22:12:03.493Z,8.50
2019-04-27T22:14:36.311Z,8.50
2019-04-27T22:17:05.242Z,8.50
2019-04-27T22:19:34.686Z,8.50
2019-04-27T22:22:05.359Z,8.50
2019-04-27T22:24:37.512Z,8.50
2019-04-27T22:27:06.281Z,8.40
2019-04-27T22:29:35.047Z,8.50
2019-04-27T22:32:04.243Z,8.50
2019-04-27T22:34:33.090Z,8.40
2019-04-27T22:37:02.673Z,8.40
2019-04-27T22:39:38.028Z,8.40
2019-04-27T22:42:25.885Z,8.40
2019-04-27T22:45:08.422Z,8.40
2019-04-27T22:47:37.320Z,8.40
2019-04-27T22:50:06.462Z,8.40
2019-04-27T22:52:37.584Z,8.40
2019-04-27T22:55:07.989Z,8.40
2019-04-27T22:57:44.831Z,8.40
2019-04-27T23:00:31.864Z,8.40
2019-04-27T23:03:03.040Z,8.40
2019-04-27T23:05:32.188Z,8.40
2019-04-27T23:08:01.908Z,8.40
2019-04-27T23:10:32.197Z,8.30
2019-04-27T23:13:01.140Z,8.30
2019-04-27T23:15:36.327Z,8.20
2019-04-27T23:18:10.349Z,8.30
2019-04-27T23:20:40.772Z,8.10
2019-04-27T23:23:11.419Z,8.20
2019-04-27T23:25:43.804Z,8.10
2019-04-27T23:28:12.588Z,8.10
2019-04-27T23:31:02.256Z,8.00
2019-04-27T23:33:31.386Z,8.00
2019-04-27T23:36:01.544Z,8.00
2019-04-27T23:38:30.962Z,7.90
2019-04-27T23:41:01.663Z,7.80
2019-04-27T23:43:30.365Z,7.70
2019-04-27T23:46:01.583Z,7.70
2019-04-27T23:48:32.137Z,7.60
2019-04-27T23:51:10.684Z,7.50
2019-04-27T23:53:39.471Z,7.50
2019-04-27T23:56:08.304Z,7.40
2019-04-27T23:58:37.166Z,7.40
